createdAt,value
2023-12-14T00:02:12.001Z,89.30
2023-12-14T00:04:40.056Z,89.00
2023-12-14T00:07:08.214Z,88.90
2023-12-14T00:09:36.200Z,88.80
2023-12-14T00:12:05.823Z,88.70
2023-12-14T00:14:33.767Z,88.50
2023-12-14T00:17:01.941Z,88.70
2023-12-14T00:19:30.001Z,88.70
2023-12-14T00:21:58.018Z,88.60
2023-12-14T00:24:25.998Z,88.60
2023-12-14T00:26:53.985Z,88.50
2023-12-14T00:29:23.372Z,88.50
2023-12-14T00:31:51.434Z,88.50
2023-12-14T00:34:19.604Z,89.30
2023-12-14T00:36:47.584Z,88.50
2023-12-14T00:39:15.657Z,88.50
2023-12-14T00:41:43.710Z,88.80
2023-12-14T00:44:11.748Z,88.90
2023-12-14T00:46:42.817Z,88.90
2023-12-14T00:49:11.127Z,88.90
2023-12-14T00:51:39.324Z,88.90
2023-12-14T00:54:07.606Z,89.10
2023-12-14T00:56:35.556Z,89.30
2023-12-14T00:59:03.796Z,89.60
2023-12-14T01:01:31.978Z,89.70
2023-12-14T01:04:01.764Z,89.90
2023-12-14T01:06:29.765Z,90.10
2023-12-14T01:08:57.894Z,90.10
2023-12-14T01:11:25.834Z,90.20
2023-12-14T01:13:53.842Z,90.20
2023-12-14T01:16:21.966Z,90.30
2023-12-14T01:18:50.172Z,90.40
2023-12-14T01:21:19.567Z,90.40
2023-12-14T01:23:47.582Z,90.70
2023-12-14T01:26:15.618Z,90.60
2023-12-14T01:28:43.800Z,90.50
2023-12-14T01:31:11.787Z,90.50
2023-12-14T01:33:39.834Z,90.60
2023-12-14T01:36:08.236Z,90.50
2023-12-14T01:38:37.523Z,90.40
2023-12-14T01:41:06.217Z,90.30
2023-12-14T01:43:34.447Z,90.10
2023-12-14T01:46:02.684Z,90.00
2023-12-14T01:48:30.747Z,90.00
2023-12-14T01:50:58.839Z,90.00
2023-12-14T01:53:27.853Z,89.90
2023-12-14T01:55:57.353Z,89.80
2023-12-14T01:58:26.446Z,89.80
2023-12-14T02:01:00.580Z,89.80
2023-12-14T02:03:28.845Z,89.90
2023-12-14T02:05:58.842Z,89.80
2023-12-14T02:08:26.892Z,89.90
2023-12-14T02:10:54.923Z,90.20
2023-12-14T02:13:24.559Z,90.50
2023-12-14T02:15:54.635Z,90.70
2023-12-14T02:18:22.824Z,90.80
2023-12-14T02:20:50.856Z,90.90
2023-12-14T02:23:20.373Z,91.00
2023-12-14T02:25:48.514Z,91.20
2023-12-14T02:28:16.485Z,91.20
2023-12-14T02:30:45.406Z,91.10
2023-12-14T02:33:13.508Z,91.00
2023-12-14T02:35:41.603Z,91.00
2023-12-14T02:38:09.885Z,91.00
2023-12-14T02:40:39.232Z,91.00
2023-12-14T02:43:07.245Z,91.00
2023-12-14T02:45:35.244Z,90.90
2023-12-14T02:48:03.303Z,91.00
2023-12-14T02:50:31.498Z,91.00
2023-12-14T02:52:59.550Z,91.10
2023-12-14T02:55:29.447Z,91.00
2023-12-14T02:57:58.756Z,91.00
2023-12-14T03:00:26.763Z,91.00
2023-12-14T03:02:54.754Z,91.00
2023-12-14T03:05:22.785Z,91.00
2023-12-14T03:07:50.822Z,91.00
2023-12-14T03:10:19.042Z,90.90
2023-12-14T03:12:47.082Z,90.90
2023-12-14T03:15:20.264Z,91.00
2023-12-14T03:17:48.317Z,91.10
2023-12-14T03:20:16.434Z,91.10
2023-12-14T03:22:44.567Z,90.90
2023-12-14T03:25:12.690Z,90.80
2023-12-14T03:27:40.697Z,90.90
2023-12-14T03:30:11.066Z,91.10
2023-12-14T03:32:40.927Z,91.20
2023-12-14T03:35:09.845Z,91.30
2023-12-14T03:37:38.133Z,91.40
2023-12-14T03:40:07.380Z,91.50
2023-12-14T03:42:35.700Z,91.40
2023-12-14T03:45:03.837Z,91.30
2023-12-14T03:47:32.198Z,91.30
2023-12-14T03:50:01.588Z,91.40
2023-12-14T03:52:32.494Z,91.20
2023-12-14T03:55:00.681Z,91.30
2023-12-14T03:57:28.729Z,91.30
2023-12-14T03:59:56.652Z,91.30
2023-12-14T04:02:24.723Z,91.50
2023-12-14T04:04:52.852Z,91.50
2023-12-14T04:07:22.696Z,91.40
2023-12-14T04:09:50.788Z,91.50
2023-12-14T04:12:19.041Z,91.50
2023-12-14T04:14:48.367Z,91.60
2023-12-14T04:17:16.388Z,91.50
2023-12-14T04:19:44.469Z,91.30
2023-12-14T04:22:12.680Z,91.20
2023-12-14T04:24:42.030Z,91.20
2023-12-14T04:27:10.095Z,91.20
2023-12-14T04:29:38.066Z,91.10
2023-12-14T04:32:07.155Z,91.20
2023-12-14T04:34:35.500Z,90.90
2023-12-14T04:37:03.540Z,90.90
2023-12-14T04:39:31.786Z,90.60
2023-12-14T04:42:01.099Z,90.60
2023-12-14T04:44:29.369Z,90.60
2023-12-14T04:46:57.408Z,90.50
2023-12-14T04:49:25.390Z,90.30
2023-12-14T04:51:53.394Z,90.50
2023-12-14T04:54:21.785Z,90.70
2023-12-14T04:56:49.855Z,90.80
2023-12-14T04:59:19.234Z,90.90
2023-12-14T05:01:47.260Z,90.90
2023-12-14T05:04:15.336Z,90.80
2023-12-14T05:06:43.477Z,90.90
2023-12-14T05:09:12.651Z,90.80
2023-12-14T05:11:42.014Z,90.90
2023-12-14T05:14:10.150Z,90.90
2023-12-14T05:16:40.343Z,90.90
2023-12-14T05:19:08.518Z,90.90
2023-12-14T05:21:36.839Z,91.00
2023-12-14T05:24:05.037Z,91.00
2023-12-14T05:26:33.269Z,90.80
2023-12-14T05:29:01.433Z,90.80
2023-12-14T05:31:29.407Z,90.70
2023-12-14T05:33:58.949Z,90.80
2023-12-14T05:36:26.925Z,90.90
2023-12-14T05:38:54.885Z,91.00
2023-12-14T05:41:23.023Z,90.80
2023-12-14T05:43:51.061Z,90.80
2023-12-14T05:46:23.343Z,90.60
2023-12-14T05:48:51.670Z,90.60
2023-12-14T05:51:30.235Z,90.50
2023-12-14T05:53:58.445Z,90.60
2023-12-14T05:56:27.608Z,90.50
2023-12-14T05:58:55.720Z,90.50
2023-12-14T06:01:25.568Z,90.70
2023-12-14T06:03:53.673Z,90.80
2023-12-14T06:06:22.171Z,91.50
2023-12-14T06:08:51.894Z,90.80
2023-12-14T06:11:20.967Z,91.00
2023-12-14T06:13:49.801Z,90.90
2023-12-14T06:16:18.022Z,91.00
2023-12-14T06:18:46.288Z,91.40
2023-12-14T06:21:14.740Z,91.20
2023-12-14T06:23:42.723Z,91.40
2023-12-14T06:26:12.109Z,91.40
2023-12-14T06:28:40.096Z,91.50
2023-12-14T06:31:09.006Z,91.50
2023-12-14T06:33:37.110Z,91.50
2023-12-14T06:36:06.314Z,91.70
2023-12-14T06:38:34.481Z,91.80
2023-12-14T06:41:04.175Z,91.90
2023-12-14T06:43:33.960Z,91.80
2023-12-14T06:46:02.016Z,92.30
2023-12-14T06:48:30.302Z,92.30
2023-12-14T06:50:58.350Z,92.30
2023-12-14T06:53:26.721Z,92.40
2023-12-14T06:55:54.860Z,92.60
2023-12-14T06:58:23.018Z,92.80
2023-12-14T07:00:52.713Z,92.90
2023-12-14T07:03:20.840Z,92.80
2023-12-14T07:05:48.815Z,92.80
2023-12-14T07:08:16.934Z,92.80
2023-12-14T07:10:45.133Z,92.90
2023-12-14T07:13:13.254Z,93.00
2023-12-14T07:15:41.363Z,93.00
2023-12-14T07:18:10.808Z,92.90
2023-12-14T07:20:38.777Z,93.10
2023-12-14T07:23:06.792Z,93.30
2023-12-14T07:25:34.865Z,93.40
2023-12-14T07:28:03.411Z,93.50
2023-12-14T07:30:31.700Z,93.70
2023-12-14T07:32:59.938Z,93.70
2023-12-14T07:35:29.235Z,93.70
2023-12-14T07:37:57.169Z,93.80
2023-12-14T07:40:25.145Z,93.80
2023-12-14T07:42:53.094Z,93.70
2023-12-14T07:45:21.015Z,94.10
2023-12-14T07:47:49.026Z,93.80
2023-12-14T07:50:17.367Z,93.80
2023-12-14T07:52:46.783Z,93.70
2023-12-14T07:55:15.632Z,93.70
2023-12-14T07:57:43.617Z,93.80
2023-12-14T08:00:12.641Z,93.90
2023-12-14T08:02:40.632Z,93.90
2023-12-14T08:05:09.206Z,94.10
2023-12-14T08:07:37.319Z,94.10
2023-12-14T08:10:07.247Z,94.00
2023-12-14T08:12:35.366Z,93.80
2023-12-14T08:15:03.937Z,93.80
2023-12-14T08:17:32.193Z,93.70
2023-12-14T08:20:00.326Z,93.70
2023-12-14T08:22:28.349Z,93.80
2023-12-14T08:24:56.347Z,93.70
2023-12-14T08:27:25.709Z,93.80
2023-12-14T08:29:53.775Z,93.70
2023-12-14T08:32:21.818Z,93.70
2023-12-14T08:34:49.802Z,93.70
2023-12-14T08:37:17.823Z,93.80
2023-12-14T08:39:46.220Z,93.80
2023-12-14T08:42:14.345Z,93.90
2023-12-14T08:44:43.672Z,93.90
2023-12-14T08:47:11.717Z,93.90
2023-12-14T08:49:39.820Z,93.90
2023-12-14T08:52:07.794Z,94.00
2023-12-14T08:54:35.744Z,94.10
2023-12-14T08:57:03.924Z,94.20
2023-12-14T08:59:31.891Z,94.30
2023-12-14T09:02:01.366Z,94.40
2023-12-14T09:04:29.406Z,94.40
2023-12-14T09:06:57.489Z,94.50
2023-12-14T09:09:25.583Z,94.40
2023-12-14T09:11:55.412Z,94.70
2023-12-14T09:14:23.592Z,94.80
2023-12-14T09:16:51.626Z,95.00
2023-12-14T09:19:21.026Z,95.00
2023-12-14T09:21:49.242Z,95.00
2023-12-14T09:24:17.524Z,94.80
2023-12-14T09:26:45.708Z,94.80
2023-12-14T09:29:13.721Z,95.00
2023-12-14T09:31:43.893Z,95.00
2023-12-14T09:34:12.069Z,95.00
2023-12-14T09:36:41.591Z,94.90
2023-12-14T09:39:11.700Z,94.90
2023-12-14T09:41:40.674Z,94.80
2023-12-14T09:44:09.072Z,94.90
2023-12-14T09:46:39.445Z,94.80
2023-12-14T09:49:09.213Z,94.80
2023-12-14T09:51:37.642Z,94.90
2023-12-14T09:54:07.518Z,94.80
2023-12-14T09:56:35.494Z,94.70
2023-12-14T09:59:05.467Z,94.70
2023-12-14T10:01:33.461Z,94.70
2023-12-14T10:04:11.006Z,94.70
2023-12-14T10:06:39.611Z,94.70
2023-12-14T10:09:10.604Z,94.50
2023-12-14T10:11:38.800Z,94.30
2023-12-14T10:14:21.738Z,94.40
2023-12-14T10:16:50.428Z,94.50
2023-12-14T10:19:19.569Z,94.60
2023-12-14T10:21:48.773Z,94.70
2023-12-14T10:24:20.839Z,94.80
2023-12-14T10:26:49.318Z,94.70
2023-12-14T10:29:17.499Z,94.80
2023-12-14T10:31:46.674Z,94.80
2023-12-14T10:34:14.984Z,95.70
2023-12-14T10:36:48.096Z,95.00
2023-12-14T10:39:19.716Z,95.10
2023-12-14T10:41:54.755Z,95.10
2023-12-14T10:44:49.203Z,95.20
2023-12-14T10:47:18.991Z,95.20
2023-12-14T10:49:52.128Z,95.20
2023-12-14T10:52:21.739Z,95.20
2023-12-14T10:54:55.106Z,95.20
2023-12-14T10:57:23.345Z,95.20
2023-12-14T10:59:51.710Z,95.30
2023-12-14T11:02:19.844Z,95.30
2023-12-14T11:04:59.567Z,96.00
2023-12-14T11:07:54.052Z,95.30
2023-12-14T11:10:25.181Z,95.40
2023-12-14T11:12:56.186Z,95.40
2023-12-14T11:15:24.565Z,95.60
2023-12-14T11:18:23.586Z,95.40
2023-12-14T11:20:53.092Z,95.60
2023-12-14T11:23:39.860Z,95.50
2023-12-14T11:26:12.598Z,95.50
2023-12-14T11:28:43.280Z,95.40
2023-12-14T11:31:13.422Z,95.30
2023-12-14T11:33:44.269Z,95.30
2023-12-14T11:36:14.895Z,95.30
2023-12-14T11:38:44.047Z,95.20
2023-12-14T11:41:13.418Z,95.20
2023-12-14T11:43:42.649Z,95.10
2023-12-14T11:46:11.568Z,95.00
2023-12-14T11:48:39.816Z,95.00
2023-12-14T11:51:08.476Z,95.00
2023-12-14T11:53:40.511Z,95.10
2023-12-14T11:56:09.739Z,95.10
2023-12-14T11:58:42.505Z,95.10
2023-12-14T12:01:15.730Z,95.10
2023-12-14T12:03:44.969Z,95.10
2023-12-14T12:06:22.971Z,95.10
2023-12-14T12:08:51.512Z,95.00
2023-12-14T12:11:19.883Z,95.00
2023-12-14T12:13:54.019Z,94.80
2023-12-14T12:16:22.188Z,94.60
2023-12-14T12:18:51.824Z,94.30
2023-12-14T12:21:19.890Z,94.30
2023-12-14T12:23:47.825Z,94.30
2023-12-14T12:26:16.392Z,94.50
2023-12-14T12:28:44.558Z,94.60
2023-12-14T12:31:14.206Z,94.70
2023-12-14T12:33:42.205Z,94.80
2023-12-14T12:36:10.763Z,94.80
2023-12-14T12:38:41.546Z,94.70
2023-12-14T12:41:09.919Z,94.80
2023-12-14T12:43:38.358Z,94.40
2023-12-14T12:46:06.542Z,93.80
2023-12-14T12:48:36.961Z,93.90
2023-12-14T12:51:05.511Z,93.80
2023-12-14T12:53:34.554Z,93.60
2023-12-14T12:56:02.977Z,93.70
2023-12-14T12:58:32.146Z,93.80
2023-12-14T13:01:00.153Z,93.70
2023-12-14T13:03:28.197Z,93.10
2023-12-14T13:05:57.706Z,92.80
2023-12-14T13:08:25.818Z,92.60
2023-12-14T13:10:56.075Z,92.60
2023-12-14T13:13:24.675Z,92.40
2023-12-14T13:15:52.666Z,92.20
2023-12-14T13:18:20.971Z,92.20
2023-12-14T13:20:49.006Z,92.20
2023-12-14T13:23:18.558Z,92.20
2023-12-14T13:25:46.988Z,92.00
2023-12-14T13:28:17.676Z,91.90
2023-12-14T13:30:46.795Z,91.70
2023-12-14T13:33:15.125Z,91.60
2023-12-14T13:35:44.011Z,91.50
2023-12-14T13:38:12.195Z,91.50
2023-12-14T13:40:41.962Z,91.00
2023-12-14T13:43:11.836Z,90.60
2023-12-14T13:45:40.764Z,90.40
2023-12-14T13:48:09.546Z,90.30
2023-12-14T13:50:38.165Z,90.30
2023-12-14T13:53:06.829Z,90.10
2023-12-14T13:55:36.139Z,90.00
2023-12-14T13:58:05.845Z,90.00
2023-12-14T14:00:35.483Z,89.10
2023-12-14T14:03:04.665Z,88.60
2023-12-14T14:05:32.843Z,88.20
2023-12-14T14:08:01.067Z,87.90
2023-12-14T14:10:29.202Z,88.20
2023-12-14T14:12:57.391Z,87.20
2023-12-14T14:15:26.782Z,86.70
2023-12-14T14:17:55.793Z,86.30
2023-12-14T14:20:24.816Z,86.40
2023-12-14T14:22:52.829Z,86.40
2023-12-14T14:25:20.842Z,86.60
2023-12-14T14:27:49.169Z,86.90
2023-12-14T14:30:18.285Z,87.10
2023-12-14T14:32:48.100Z,87.30
2023-12-14T14:35:16.502Z,87.50
2023-12-14T14:37:47.222Z,87.60
2023-12-14T14:40:16.008Z,87.60
2023-12-14T14:42:44.485Z,87.60
2023-12-14T14:45:13.262Z,87.90
2023-12-14T14:47:42.678Z,88.30
2023-12-14T14:50:13.670Z,88.60
2023-12-14T14:52:41.907Z,89.00
2023-12-14T14:55:10.725Z,89.70
2023-12-14T14:57:38.859Z,89.30
2023-12-14T15:00:08.590Z,89.20
2023-12-14T15:02:37.664Z,88.80
2023-12-14T15:05:06.560Z,88.40
2023-12-14T15:07:36.057Z,87.10
2023-12-14T15:10:04.851Z,85.10
2023-12-14T15:12:32.998Z,84.00
2023-12-14T15:15:01.134Z,82.80
2023-12-14T15:17:29.268Z,82.30
2023-12-14T15:19:57.308Z,82.30
2023-12-14T15:22:25.307Z,82.80
2023-12-14T15:24:54.673Z,83.40
2023-12-14T15:27:22.802Z,84.20
2023-12-14T15:29:51.266Z,85.10
2023-12-14T15:32:19.511Z,86.10
2023-12-14T15:34:47.596Z,86.60
2023-12-14T15:37:15.585Z,87.10
2023-12-14T15:39:49.000Z,87.40
2023-12-14T15:42:18.704Z,87.50
2023-12-14T15:44:46.986Z,87.50
2023-12-14T15:47:15.464Z,87.50
2023-12-14T15:49:44.691Z,87.90
2023-12-14T15:52:12.791Z,88.00
2023-12-14T15:54:40.945Z,88.00
2023-12-14T15:57:08.919Z,88.20
2023-12-14T15:59:38.348Z,88.40
2023-12-14T16:02:06.429Z,88.60
2023-12-14T16:04:34.391Z,88.80
2023-12-14T16:07:03.011Z,88.90
2023-12-14T16:09:31.081Z,89.10
2023-12-14T16:12:01.446Z,89.30
2023-12-14T16:14:29.454Z,90.10
2023-12-14T16:16:59.531Z,89.60
2023-12-14T16:19:27.543Z,89.50
2023-12-14T16:21:55.529Z,89.60
2023-12-14T16:24:24.617Z,89.80
2023-12-14T16:26:58.594Z,89.80
2023-12-14T16:29:27.774Z,89.70
2023-12-14T16:31:56.071Z,89.70
2023-12-14T16:34:25.569Z,89.80
2023-12-14T16:36:53.776Z,90.10
2023-12-14T16:39:22.362Z,90.30
2023-12-14T16:41:50.328Z,90.40
2023-12-14T16:44:18.612Z,90.50
2023-12-14T16:46:46.648Z,90.50
2023-12-14T16:49:14.737Z,90.60
2023-12-14T16:51:44.078Z,90.70
2023-12-14T16:54:12.028Z,90.70
2023-12-14T16:56:43.548Z,90.70
2023-12-14T16:59:15.166Z,90.70
2023-12-14T17:01:43.885Z,90.70
2023-12-14T17:04:11.830Z,90.70
2023-12-14T17:06:41.186Z,90.70
2023-12-14T17:09:10.572Z,90.50
2023-12-14T17:11:38.538Z,90.10
2023-12-14T17:14:06.506Z,89.10
2023-12-14T17:16:34.470Z,88.40
2023-12-14T17:19:02.430Z,87.80
2023-12-14T17:21:30.736Z,86.90
2023-12-14T17:23:58.757Z,86.60
2023-12-14T17:26:28.658Z,85.70
2023-12-14T17:28:57.994Z,85.50
2023-12-14T17:31:27.358Z,85.40
2023-12-14T17:33:55.735Z,85.10
2023-12-14T17:36:23.738Z,84.80
2023-12-14T17:38:52.894Z,85.30
2023-12-14T17:41:22.015Z,85.60
2023-12-14T17:43:53.452Z,85.70
2023-12-14T17:46:22.953Z,85.70
2023-12-14T17:48:50.990Z,85.60
2023-12-14T17:51:18.994Z,85.60
2023-12-14T17:53:47.069Z,85.30
2023-12-14T17:56:15.377Z,84.70
2023-12-14T17:58:46.429Z,83.30
2023-12-14T18:01:16.625Z,83.30
2023-12-14T18:03:44.679Z,83.30
2023-12-14T18:06:12.779Z,82.90
2023-12-14T18:08:40.733Z,82.20
2023-12-14T18:11:09.088Z,82.40
2023-12-14T18:13:37.033Z,82.70
2023-12-14T18:16:05.686Z,82.40
2023-12-14T18:18:35.028Z,82.40
2023-12-14T18:21:04.596Z,82.30
2023-12-14T18:23:32.574Z,81.60
2023-12-14T18:26:00.679Z,81.20
2023-12-14T18:28:28.920Z,80.50
2023-12-14T18:30:57.223Z,80.30
2023-12-14T18:33:25.572Z,79.80
2023-12-14T18:35:55.202Z,78.90
2023-12-14T18:38:23.689Z,78.80
2023-12-14T18:40:52.037Z,79.00
2023-12-14T18:43:20.057Z,78.80
2023-12-14T18:45:48.279Z,79.60
2023-12-14T18:48:16.483Z,79.60
2023-12-14T18:50:44.576Z,80.00
2023-12-14T18:53:14.117Z,78.80
2023-12-14T18:55:42.498Z,77.80
2023-12-14T18:58:11.612Z,77.80
2023-12-14T19:00:39.655Z,77.60
2023-12-14T19:03:08.169Z,77.00
2023-12-14T19:05:37.456Z,77.40
2023-12-14T19:08:05.720Z,77.60
2023-12-14T19:10:35.480Z,77.30
2023-12-14T19:13:05.034Z,77.20
2023-12-14T19:15:33.532Z,77.10
2023-12-14T19:18:02.096Z,76.10
2023-12-14T19:20:30.308Z,76.40
2023-12-14T19:22:59.976Z,76.50
2023-12-14T19:25:27.940Z,76.50
2023-12-14T19:27:57.294Z,76.40
2023-12-14T19:30:25.432Z,75.90
2023-12-14T19:32:54.143Z,75.70
2023-12-14T19:35:22.374Z,76.10
2023-12-14T19:37:50.664Z,73.70
2023-12-14T19:40:19.240Z,74.10
2023-12-14T19:42:47.553Z,74.60
2023-12-14T19:45:18.191Z,75.10
2023-12-14T19:47:46.668Z,75.50
2023-12-14T19:50:14.940Z,75.30
2023-12-14T19:52:42.944Z,74.60
2023-12-14T19:55:13.496Z,74.60
2023-12-14T19:57:41.789Z,73.80
2023-12-14T20:00:11.973Z,73.20
2023-12-14T20:02:41.402Z,73.40
2023-12-14T20:05:10.187Z,72.70
2023-12-14T20:07:38.680Z,72.70
2023-12-14T20:10:08.201Z,73.40
2023-12-14T20:12:36.177Z,74.20
2023-12-14T20:15:04.714Z,74.10
2023-12-14T20:17:32.720Z,74.50
2023-12-14T20:20:02.427Z,74.60
2023-12-14T20:22:33.218Z,75.10
2023-12-14T20:25:01.304Z,75.00
2023-12-14T20:27:29.468Z,74.80
2023-12-14T20:29:57.430Z,74.50
2023-12-14T20:32:25.570Z,74.30
2023-12-14T20:34:53.695Z,73.90
2023-12-14T20:37:23.392Z,73.90
2023-12-14T20:39:54.252Z,73.70
2023-12-14T20:42:22.369Z,73.20
2023-12-14T20:44:50.440Z,72.40
2023-12-14T20:47:18.458Z,72.90
2023-12-14T20:49:46.425Z,72.10
2023-12-14T20:52:14.468Z,72.40
2023-12-14T20:54:44.049Z,72.80
2023-12-14T20:57:12.038Z,72.60
2023-12-14T20:59:40.147Z,72.90
2023-12-14T21:02:10.142Z,72.50
2023-12-14T21:04:38.168Z,72.30
2023-12-14T21:07:06.303Z,72.50
2023-12-14T21:09:34.366Z,72.80
2023-12-14T21:12:04.067Z,72.60
2023-12-14T21:14:32.235Z,71.80
2023-12-14T21:17:00.351Z,71.40
2023-12-14T21:19:28.559Z,70.70
2023-12-14T21:21:58.167Z,70.70
2023-12-14T21:24:28.797Z,70.00
2023-12-14T21:27:10.680Z,70.70
2023-12-14T21:29:41.951Z,71.40
2023-12-14T21:32:10.233Z,71.00
2023-12-14T21:34:38.202Z,69.70
2023-12-14T21:37:06.188Z,68.60
2023-12-14T21:39:34.194Z,69.00
2023-12-14T21:42:02.214Z,70.30
2023-12-14T21:44:31.677Z,71.30
2023-12-14T21:47:01.273Z,70.00
2023-12-14T21:49:29.328Z,70.10
2023-12-14T21:51:57.367Z,69.90
2023-12-14T21:54:25.447Z,69.40
2023-12-14T21:56:53.432Z,69.70
2023-12-14T21:59:21.479Z,69.80
2023-12-14T22:01:49.612Z,69.70
2023-12-14T22:04:19.162Z,69.90
2023-12-14T22:06:47.187Z,69.60
2023-12-14T22:09:16.618Z,69.60
2023-12-14T22:11:44.611Z,69.60
2023-12-14T22:14:12.929Z,70.00
2023-12-14T22:16:41.152Z,69.70
2023-12-14T22:19:09.301Z,69.80
2023-12-14T22:21:38.766Z,70.00
2023-12-14T22:24:07.085Z,70.10
2023-12-14T22:26:35.130Z,70.60
2023-12-14T22:29:03.477Z,70.40
2023-12-14T22:31:31.510Z,70.70
2023-12-14T22:33:59.558Z,70.60
2023-12-14T22:36:27.590Z,70.70
2023-12-14T22:38:56.865Z,71.20
2023-12-14T22:41:25.055Z,71.40
2023-12-14T22:43:53.066Z,72.00
2023-12-14T22:46:21.101Z,72.40
2023-12-14T22:48:49.182Z,72.60
2023-12-14T22:51:19.130Z,73.10
2023-12-14T22:53:47.660Z,73.30
2023-12-14T22:56:24.675Z,72.80
2023-12-14T22:58:52.774Z,73.30
2023-12-14T23:01:32.243Z,74.00
2023-12-14T23:04:00.633Z,74.80
2023-12-14T23:06:28.640Z,75.40
2023-12-14T23:08:56.849Z,75.50
2023-12-14T23:11:26.500Z,75.70
2023-12-14T23:13:54.687Z,75.90
2023-12-14T23:16:23.412Z,76.00
2023-12-14T23:18:51.669Z,76.00
2023-12-14T23:21:19.777Z,75.80
2023-12-14T23:23:47.920Z,75.60
2023-12-14T23:26:15.894Z,75.90
2023-12-14T23:28:45.230Z,76.10
2023-12-14T23:31:13.154Z,76.50
2023-12-14T23:33:41.372Z,76.70
2023-12-14T23:36:10.449Z,76.70
2023-12-14T23:38:38.473Z,76.90
2023-12-14T23:41:07.103Z,77.10
2023-12-14T23:43:35.151Z,77.20
2023-12-14T23:46:04.573Z,77.50
2023-12-14T23:48:32.658Z,77.90
2023-12-14T23:51:00.668Z,78.00
2023-12-14T23:53:28.666Z,78.10
2023-12-14T23:55:56.687Z,78.50
2023-12-14T23:58:24.649Z,78.60
